createdAt,value
2022-10-13T00:00:29.185Z,8.36
2022-10-13T00:02:55.886Z,8.23
2022-10-13T00:05:22.585Z,8.18
2022-10-13T00:07:49.296Z,8.25
2022-10-13T00:10:16.113Z,8.29
2022-10-13T00:12:42.823Z,8.19
2022-10-13T00:15:10.224Z,8.20
2022-10-13T00:17:37.155Z,8.23
2022-10-13T00:20:06.330Z,8.22
2022-10-13T00:22:33.243Z,7.93
2022-10-13T00:25:05.155Z,7.89
2022-10-13T00:27:31.901Z,7.75
2022-10-13T00:29:59.541Z,7.64
2022-10-13T00:32:26.235Z,7.70
2022-10-13T00:34:53.021Z,7.72
2022-10-13T00:37:19.605Z,7.62
2022-10-13T00:39:46.278Z,7.71
2022-10-13T00:42:13.854Z,7.70
2022-10-13T00:45:04.083Z,7.67
2022-10-13T00:47:38.827Z,7.71
2022-10-13T00:50:10.021Z,7.83
2022-10-13T00:52:37.656Z,7.74
2022-10-13T00:55:07.829Z,7.89
2022-10-13T00:57:35.063Z,7.71
2022-10-13T01:00:04.960Z,7.75
2022-10-13T01:02:35.676Z,7.74
2022-10-13T01:05:04.021Z,7.67
2022-10-13T01:07:31.619Z,7.72
2022-10-13T01:10:01.489Z,7.76
2022-10-13T01:12:40.389Z,7.83
2022-10-13T01:15:14.953Z,7.79
2022-10-13T01:18:16.721Z,7.73
2022-10-13T01:20:54.142Z,7.77
2022-10-13T01:23:29.681Z,7.87
2022-10-13T01:26:02.506Z,7.93
2022-10-13T01:28:55.498Z,7.94
2022-10-13T01:31:35.343Z,7.97
2022-10-13T01:34:07.867Z,8.10
2022-10-13T01:36:53.603Z,8.20
2022-10-13T01:39:27.034Z,8.19
2022-10-13T01:42:00.969Z,8.26
2022-10-13T01:44:34.407Z,8.24
2022-10-13T01:47:02.677Z,8.22
2022-10-13T01:49:34.375Z,8.14
2022-10-13T01:52:06.398Z,8.27
2022-10-13T01:54:33.355Z,8.33
2022-10-13T01:57:00.161Z,8.29
2022-10-13T01:59:29.839Z,8.22
2022-10-13T02:02:05.712Z,8.03
2022-10-13T02:04:50.784Z,8.16
2022-10-13T02:07:38.922Z,8.17
2022-10-13T02:10:23.294Z,7.93
2022-10-13T02:12:51.041Z,8.09
2022-10-13T02:15:22.433Z,8.16
2022-10-13T02:17:51.288Z,8.12
2022-10-13T02:20:20.211Z,8.11
2022-10-13T02:22:49.145Z,8.05
2022-10-13T02:25:15.778Z,7.87
2022-10-13T02:27:42.439Z,7.92
2022-10-13T02:30:09.789Z,7.87
2022-10-13T02:32:36.447Z,7.82
2022-10-13T02:35:03.333Z,7.64
2022-10-13T02:37:29.996Z,7.59
2022-10-13T02:39:56.736Z,7.53
2022-10-13T02:42:23.624Z,7.56
2022-10-13T02:44:50.402Z,7.44
2022-10-13T02:47:17.176Z,7.49
2022-10-13T02:49:43.888Z,7.42
2022-10-13T02:52:10.734Z,7.43
2022-10-13T02:54:37.338Z,7.45
2022-10-13T02:57:04.072Z,7.44
2022-10-13T02:59:30.813Z,7.44
2022-10-13T03:01:58.415Z,7.35
2022-10-13T03:04:25.513Z,7.25
2022-10-13T03:06:52.225Z,7.21
2022-10-13T03:09:18.857Z,7.08
2022-10-13T03:11:45.512Z,7.26
2022-10-13T03:14:12.389Z,7.19
2022-10-13T03:16:39.117Z,7.09
2022-10-13T03:19:05.956Z,7.10
2022-10-13T03:21:32.632Z,7.15
2022-10-13T03:23:59.517Z,7.00
2022-10-13T03:26:26.165Z,6.90
2022-10-13T03:28:53.157Z,6.80
2022-10-13T03:31:20.055Z,6.82
2022-10-13T03:33:46.777Z,6.76
2022-10-13T03:36:13.660Z,6.83
2022-10-13T03:38:40.703Z,6.78
2022-10-13T03:41:12.639Z,6.79
2022-10-13T03:43:40.503Z,6.77
2022-10-13T03:46:07.980Z,6.77
2022-10-13T03:48:36.004Z,6.82
2022-10-13T03:51:08.306Z,6.87
2022-10-13T03:53:34.980Z,6.97
2022-10-13T03:56:01.880Z,6.90
2022-10-13T03:58:29.191Z,6.98
2022-10-13T04:00:56.317Z,7.00
2022-10-13T04:03:24.357Z,7.19
2022-10-13T04:05:51.244Z,7.26
2022-10-13T04:08:17.985Z,7.26
2022-10-13T04:10:44.584Z,7.13
2022-10-13T04:13:11.267Z,7.08
2022-10-13T04:15:41.148Z,6.97
2022-10-13T04:18:08.502Z,6.97
2022-10-13T04:20:39.985Z,6.88
2022-10-13T04:23:07.397Z,6.95
2022-10-13T04:25:38.550Z,7.01
2022-10-13T04:28:07.318Z,7.09
2022-10-13T04:30:35.051Z,7.18
2022-10-13T04:33:01.799Z,7.30
2022-10-13T04:35:28.853Z,7.38
2022-10-13T04:37:57.997Z,7.39
2022-10-13T04:40:26.006Z,7.30
2022-10-13T04:42:52.653Z,7.36
2022-10-13T04:45:19.365Z,7.44
2022-10-13T04:47:45.989Z,7.41
2022-10-13T04:50:12.737Z,7.26
2022-10-13T04:52:39.305Z,7.10
2022-10-13T04:55:06.499Z,7.18
2022-10-13T04:57:33.302Z,7.16
2022-10-13T05:00:00.294Z,7.22
2022-10-13T05:02:27.011Z,7.08
2022-10-13T05:04:53.659Z,7.25
2022-10-13T05:07:20.313Z,7.08
2022-10-13T05:09:46.924Z,7.11
2022-10-13T05:12:13.632Z,7.20
2022-10-13T05:14:40.336Z,7.10
2022-10-13T05:17:07.180Z,7.15
2022-10-13T05:19:33.957Z,7.14
2022-10-13T05:22:00.702Z,7.12
2022-10-13T05:24:39.053Z,7.30
2022-10-13T05:27:08.891Z,7.37
2022-10-13T05:29:35.937Z,7.42
2022-10-13T05:32:02.935Z,7.55
2022-10-13T05:34:29.512Z,7.63
2022-10-13T05:36:56.206Z,7.58
2022-10-13T05:39:23.198Z,7.62
2022-10-13T05:41:49.920Z,7.76
2022-10-13T05:44:17.563Z,7.86
2022-10-13T05:46:44.609Z,7.97
2022-10-13T05:49:11.339Z,8.05
2022-10-13T05:51:45.971Z,7.98
2022-10-13T05:54:33.948Z,8.05
2022-10-13T05:57:04.950Z,7.91
2022-10-13T05:59:36.087Z,7.97
2022-10-13T06:02:04.354Z,8.17
2022-10-13T06:04:36.986Z,8.06
2022-10-13T06:07:04.130Z,8.17
2022-10-13T06:09:35.833Z,8.11
2022-10-13T06:12:02.449Z,8.20
2022-10-13T06:14:29.126Z,8.27
2022-10-13T06:16:56.198Z,8.30
2022-10-13T06:19:23.100Z,8.45
2022-10-13T06:21:49.703Z,8.56
2022-10-13T06:24:16.440Z,8.68
2022-10-13T06:26:43.014Z,8.79
2022-10-13T06:29:09.804Z,9.13
2022-10-13T06:31:36.442Z,9.15
2022-10-13T06:34:03.141Z,9.40
2022-10-13T06:36:29.748Z,9.59
2022-10-13T06:38:56.451Z,9.65
2022-10-13T06:41:23.467Z,9.57
2022-10-13T06:43:50.149Z,9.50
2022-10-13T06:46:16.926Z,9.40
2022-10-13T06:48:43.659Z,9.56
2022-10-13T06:51:11.610Z,9.70
2022-10-13T06:53:38.275Z,9.90
2022-10-13T06:56:07.010Z,10.08
2022-10-13T06:58:35.387Z,10.34
2022-10-13T07:01:03.024Z,10.55
2022-10-13T07:03:29.791Z,10.71
2022-10-13T07:06:01.527Z,11.09
2022-10-13T07:08:28.300Z,11.32
2022-10-13T07:10:54.993Z,11.41
2022-10-13T07:15:53.215Z,11.73
2022-10-13T07:18:19.868Z,11.86
2022-10-13T07:20:46.424Z,11.73
2022-10-13T07:23:13.152Z,11.71
2022-10-13T07:25:39.866Z,11.77
2022-10-13T07:28:06.454Z,11.79
2022-10-13T07:30:33.138Z,11.62
2022-10-13T07:33:00.325Z,11.76
2022-10-13T07:35:30.455Z,12.05
2022-10-13T07:37:57.797Z,12.25
2022-10-13T07:40:25.002Z,12.41
2022-10-13T07:42:51.664Z,12.40
2022-10-13T07:45:18.475Z,12.51
2022-10-13T07:47:45.136Z,12.51
2022-10-13T07:50:12.047Z,12.53
2022-10-13T07:52:39.792Z,12.67
2022-10-13T07:55:07.230Z,12.78
2022-10-13T07:57:34.100Z,12.58
2022-10-13T08:00:03.529Z,12.83
2022-10-13T08:02:30.600Z,12.84
2022-10-13T08:04:57.201Z,12.64
2022-10-13T08:07:24.071Z,12.78
2022-10-13T08:09:50.637Z,12.79
2022-10-13T08:12:17.584Z,13.08
2022-10-13T08:14:44.718Z,13.02
2022-10-13T08:17:11.491Z,12.89
2022-10-13T08:19:38.161Z,12.80
2022-10-13T08:22:09.503Z,13.13
2022-10-13T08:24:37.034Z,13.36
2022-10-13T08:27:03.916Z,13.53
2022-10-13T08:29:30.629Z,13.86
2022-10-13T08:31:57.419Z,14.02
2022-10-13T08:34:24.653Z,14.21
2022-10-13T08:36:54.585Z,14.27
2022-10-13T08:39:22.702Z,14.55
2022-10-13T08:41:49.725Z,14.73
2022-10-13T08:47:18.541Z,14.80
2022-10-13T08:49:46.347Z,15.09
2022-10-13T08:52:25.533Z,15.08
2022-10-13T08:54:54.915Z,15.33
2022-10-13T08:57:22.605Z,15.77
2022-10-13T08:59:49.963Z,15.71
2022-10-13T09:02:26.629Z,15.49
2022-10-13T09:04:54.247Z,15.36
2022-10-13T09:07:29.657Z,15.59
2022-10-13T09:09:56.505Z,15.68
2022-10-13T09:12:25.071Z,15.60
2022-10-13T09:15:05.817Z,15.76
2022-10-13T09:17:33.927Z,15.96
2022-10-13T09:20:06.646Z,15.64
2022-10-13T09:22:36.395Z,15.89
2022-10-13T09:25:18.413Z,15.78
2022-10-13T09:27:58.162Z,15.86
2022-10-13T09:30:30.692Z,15.85
2022-10-13T09:33:09.594Z,16.26
2022-10-13T09:35:37.441Z,16.34
2022-10-13T09:38:05.934Z,16.10
2022-10-13T09:40:33.897Z,16.28
2022-10-13T09:43:02.339Z,16.50
2022-10-13T09:45:31.094Z,16.51
2022-10-13T09:48:04.885Z,16.58
2022-10-13T09:50:35.463Z,16.95
2022-10-13T09:53:38.396Z,17.13
2022-10-13T09:56:31.022Z,17.59
2022-10-13T09:59:36.315Z,17.57
2022-10-13T10:02:34.024Z,17.69
2022-10-13T10:05:07.893Z,17.56
2022-10-13T10:07:34.602Z,17.67
2022-10-13T10:10:05.702Z,17.76
2022-10-13T10:12:37.510Z,17.69
2022-10-13T10:15:17.290Z,17.84
2022-10-13T10:17:52.689Z,17.89
2022-10-13T10:20:31.419Z,17.99
2022-10-13T10:23:07.770Z,18.28
2022-10-13T10:25:42.766Z,18.47
2022-10-13T10:28:15.459Z,18.20
2022-10-13T10:31:21.095Z,18.31
2022-10-13T10:34:13.613Z,18.18
2022-10-13T10:36:57.447Z,17.97
2022-10-13T10:39:36.880Z,17.91
2022-10-13T10:42:13.609Z,18.10
2022-10-13T10:44:43.596Z,18.36
2022-10-13T10:47:43.260Z,18.69
2022-10-13T10:50:16.104Z,18.87
2022-10-13T10:53:13.740Z,18.99
2022-10-13T10:55:53.772Z,19.51
2022-10-13T10:58:38.906Z,19.45
2022-10-13T11:01:11.616Z,19.36
2022-10-13T11:03:54.128Z,19.56
2022-10-13T11:06:20.766Z,19.71
2022-10-13T11:08:49.600Z,19.55
2022-10-13T11:11:26.569Z,19.37
2022-10-13T11:13:55.707Z,18.93
2022-10-13T11:16:32.943Z,19.42
2022-10-13T11:19:22.639Z,19.47
2022-10-13T11:21:55.311Z,19.44
2022-10-13T11:24:34.277Z,19.43
2022-10-13T11:27:16.213Z,19.51
2022-10-13T11:29:46.671Z,19.79
2022-10-13T11:32:25.803Z,20.03
2022-10-13T11:35:02.785Z,20.16
2022-10-13T11:37:35.774Z,20.48
2022-10-13T11:40:08.499Z,20.66
2022-10-13T11:42:56.896Z,20.72
2022-10-13T11:45:40.520Z,20.21
2022-10-13T11:48:29.262Z,20.46
2022-10-13T11:51:32.536Z,20.57
2022-10-13T11:54:08.464Z,20.54
2022-10-13T11:56:48.340Z,20.26
2022-10-13T11:59:21.100Z,20.10
2022-10-13T12:01:48.193Z,19.79
2022-10-13T12:04:15.542Z,19.56
2022-10-13T12:06:42.385Z,19.59
2022-10-13T12:09:20.812Z,19.28
2022-10-13T12:11:57.476Z,19.14
2022-10-13T12:14:31.285Z,19.14
2022-10-13T12:17:00.060Z,19.14
2022-10-13T12:19:29.783Z,19.77
2022-10-13T12:21:59.085Z,20.19
2022-10-13T12:24:29.263Z,20.70
2022-10-13T12:26:57.008Z,20.99
2022-10-13T12:29:27.607Z,21.23
2022-10-13T12:31:55.030Z,21.19
2022-10-13T12:34:32.826Z,21.30
2022-10-13T12:37:03.133Z,21.31
2022-10-13T12:39:32.723Z,21.26
2022-10-13T12:42:02.801Z,21.43
2022-10-13T12:44:32.559Z,21.36
2022-10-13T12:47:02.035Z,21.51
2022-10-13T12:49:34.352Z,21.46
2022-10-13T12:52:16.945Z,21.64
2022-10-13T12:54:52.581Z,21.58
2022-10-13T12:57:37.631Z,21.72
2022-10-13T13:00:19.805Z,21.80
2022-10-13T13:02:58.762Z,21.97
2022-10-13T13:05:37.337Z,21.15
2022-10-13T13:08:06.508Z,20.92
2022-10-13T13:10:35.369Z,21.17
2022-10-13T13:13:15.184Z,21.33
2022-10-13T13:15:41.948Z,21.38
2022-10-13T13:18:26.838Z,21.64
2022-10-13T13:20:54.459Z,21.54
2022-10-13T13:23:22.449Z,21.24
2022-10-13T13:26:04.499Z,20.90
2022-10-13T13:28:34.278Z,20.58
2022-10-13T13:31:00.998Z,20.44
2022-10-13T13:33:27.885Z,20.70
2022-10-13T13:35:54.698Z,20.87
2022-10-13T13:38:21.323Z,20.91
2022-10-13T13:40:48.111Z,20.23
2022-10-13T13:43:14.711Z,20.17
2022-10-13T13:45:41.522Z,20.27
2022-10-13T13:48:10.963Z,20.12
2022-10-13T13:50:37.933Z,20.22
2022-10-13T13:53:06.452Z,19.95
2022-10-13T13:55:33.130Z,19.38
2022-10-13T13:58:00.160Z,19.15
2022-10-13T14:00:27.126Z,19.38
2022-10-13T14:02:53.781Z,19.39
2022-10-13T14:05:20.482Z,19.48
2022-10-13T14:07:47.175Z,19.71
2022-10-13T14:10:14.221Z,19.88
2022-10-13T14:12:41.068Z,19.90
2022-10-13T14:15:08.612Z,19.74
2022-10-13T14:17:35.206Z,19.71
2022-10-13T14:20:01.889Z,19.63
2022-10-13T14:22:28.593Z,19.72
2022-10-13T14:24:55.289Z,19.74
2022-10-13T14:27:22.023Z,19.79
2022-10-13T14:29:48.663Z,19.79
2022-10-13T14:32:15.766Z,19.75
2022-10-13T14:34:42.367Z,19.75
2022-10-13T14:37:09.085Z,19.59
2022-10-13T14:39:35.632Z,19.51
2022-10-13T14:42:02.244Z,19.33
2022-10-13T14:44:29.019Z,19.27
2022-10-13T14:46:55.792Z,19.14
2022-10-13T14:49:22.439Z,18.91
2022-10-13T14:51:49.075Z,18.94
2022-10-13T14:54:16.244Z,18.45
2022-10-13T14:56:44.669Z,18.26
2022-10-13T14:59:13.199Z,17.99
2022-10-13T15:01:43.586Z,17.80
2022-10-13T15:04:11.227Z,17.62
2022-10-13T15:06:40.099Z,17.57
2022-10-13T15:11:36.172Z,17.35
2022-10-13T15:14:03.196Z,17.20
2022-10-13T15:16:33.437Z,17.00
2022-10-13T15:19:01.161Z,16.96
2022-10-13T15:21:27.930Z,16.78
2022-10-13T15:23:54.504Z,16.75
2022-10-13T15:26:21.790Z,16.72
2022-10-13T15:28:51.398Z,16.71
2022-10-13T15:31:19.465Z,16.68
2022-10-13T15:33:48.250Z,16.58
2022-10-13T15:36:15.001Z,16.55
2022-10-13T15:38:42.224Z,16.51
2022-10-13T15:41:10.416Z,16.45
2022-10-13T15:43:37.560Z,16.35
2022-10-13T15:46:06.985Z,16.36
2022-10-13T15:48:34.893Z,16.39
2022-10-13T15:51:09.029Z,16.37
2022-10-13T15:53:35.930Z,16.23
2022-10-13T15:56:03.023Z,16.29
2022-10-13T15:58:29.742Z,16.32
2022-10-13T16:00:56.693Z,16.19
2022-10-13T16:03:24.475Z,16.16
2022-10-13T16:05:51.208Z,16.20
2022-10-13T16:08:17.864Z,15.95
2022-10-13T16:10:44.740Z,16.05
2022-10-13T16:13:14.311Z,15.94
2022-10-13T16:15:42.357Z,15.83
2022-10-13T16:18:09.218Z,15.77
2022-10-13T16:20:38.059Z,15.68
2022-10-13T16:23:05.198Z,15.69
2022-10-13T16:25:32.299Z,15.60
2022-10-13T16:28:01.025Z,15.70
2022-10-13T16:30:30.361Z,15.66
2022-10-13T16:32:57.590Z,15.62
2022-10-13T16:35:24.220Z,15.56
2022-10-13T16:37:50.865Z,15.64
2022-10-13T16:40:18.006Z,15.57
2022-10-13T16:42:45.465Z,15.62
2022-10-13T16:45:13.201Z,15.57
2022-10-13T16:47:40.265Z,15.52
2022-10-13T16:50:09.794Z,15.46
2022-10-13T16:52:37.994Z,15.32
2022-10-13T16:55:06.015Z,15.57
2022-10-13T16:57:33.108Z,15.52
2022-10-13T17:00:00.299Z,15.61
2022-10-13T17:02:26.968Z,15.58
2022-10-13T17:04:53.602Z,15.62
2022-10-13T17:07:20.666Z,15.64
2022-10-13T17:09:47.832Z,15.43
2022-10-13T17:12:14.771Z,15.41
2022-10-13T17:14:41.573Z,15.46
2022-10-13T17:17:08.190Z,15.41
2022-10-13T17:19:34.997Z,15.41
2022-10-13T17:22:01.680Z,15.23
2022-10-13T17:24:29.926Z,15.32
2022-10-13T17:26:56.682Z,15.19
2022-10-13T17:29:23.670Z,15.15
2022-10-13T17:31:50.688Z,15.19
2022-10-13T17:34:17.316Z,15.11
2022-10-13T17:36:44.255Z,15.07
2022-10-13T17:39:11.944Z,15.08
2022-10-13T17:41:38.622Z,15.03
2022-10-13T17:44:05.283Z,15.06
2022-10-13T17:46:37.865Z,14.95
2022-10-13T17:49:10.616Z,15.01
2022-10-13T17:51:37.913Z,14.94
2022-10-13T17:54:05.393Z,14.82
2022-10-13T17:56:32.273Z,14.97
2022-10-13T17:59:00.568Z,14.94
2022-10-13T18:01:31.699Z,14.83
2022-10-13T18:04:04.558Z,14.82
2022-10-13T18:06:38.479Z,14.74
2022-10-13T18:09:12.202Z,14.75
2022-10-13T18:11:39.232Z,14.76
2022-10-13T18:14:07.065Z,14.58
2022-10-13T18:16:34.697Z,14.64
2022-10-13T18:19:01.750Z,14.50
2022-10-13T18:21:29.293Z,14.35
2022-10-13T18:24:01.251Z,14.38
2022-10-13T18:26:32.306Z,14.40
2022-10-13T18:28:59.309Z,14.34
2022-10-13T18:31:28.951Z,14.28
2022-10-13T18:33:56.990Z,14.23
2022-10-13T18:36:29.401Z,14.22
2022-10-13T18:39:11.856Z,14.22
2022-10-13T18:41:39.061Z,14.09
2022-10-13T18:44:06.523Z,13.98
2022-10-13T18:46:33.708Z,13.87
2022-10-13T18:49:00.824Z,13.93
2022-10-13T18:51:34.728Z,13.89
2022-10-13T18:54:02.797Z,13.84
2022-10-13T18:56:31.222Z,13.74
2022-10-13T18:59:00.599Z,13.65
2022-10-13T19:01:30.691Z,13.68
2022-10-13T19:03:58.014Z,13.69
2022-10-13T19:06:27.387Z,13.70
2022-10-13T19:09:00.808Z,13.59
2022-10-13T19:11:29.272Z,13.65
2022-10-13T19:13:56.324Z,13.64
2022-10-13T19:16:24.581Z,13.51
2022-10-13T19:18:52.022Z,13.36
2022-10-13T19:21:20.589Z,13.22
2022-10-13T19:23:47.444Z,13.27
2022-10-13T19:26:26.223Z,13.17
2022-10-13T19:28:58.477Z,13.07
2022-10-13T19:31:27.905Z,13.00
2022-10-13T19:33:55.324Z,13.00
2022-10-13T19:36:33.284Z,13.04
2022-10-13T19:39:01.033Z,13.03
2022-10-13T19:41:29.795Z,12.93
2022-10-13T19:43:56.423Z,12.94
2022-10-13T19:46:23.601Z,12.95
2022-10-13T19:48:50.412Z,13.03
2022-10-13T19:51:17.359Z,13.08
2022-10-13T19:53:47.129Z,13.12
2022-10-13T19:56:26.595Z,13.10
2022-10-13T19:58:54.217Z,13.00
2022-10-13T20:01:22.088Z,13.06
2022-10-13T20:03:49.365Z,13.10
2022-10-13T20:06:17.273Z,13.04
2022-10-13T20:08:45.556Z,13.00
2022-10-13T20:11:17.279Z,13.02
2022-10-13T20:13:47.665Z,12.90
2022-10-13T20:16:17.307Z,12.92
2022-10-13T20:18:44.502Z,12.91
2022-10-13T20:21:12.751Z,12.83
2022-10-13T20:23:40.942Z,12.88
2022-10-13T20:26:09.847Z,12.88
2022-10-13T20:28:42.865Z,12.78
2022-10-13T20:31:12.896Z,12.76
2022-10-13T20:33:40.052Z,12.74
2022-10-13T20:36:09.268Z,12.70
2022-10-13T20:38:36.319Z,12.69
2022-10-13T20:41:06.672Z,12.65
2022-10-13T20:43:37.109Z,12.58
2022-10-13T20:46:06.955Z,12.68
2022-10-13T20:49:05.219Z,12.56
2022-10-13T20:51:25.134Z,12.61
2022-10-13T20:53:52.238Z,12.67
2022-10-13T20:56:25.271Z,12.66
2022-10-13T20:58:52.372Z,12.61
2022-10-13T21:01:20.965Z,12.59
2022-10-13T21:03:54.331Z,12.67
2022-10-13T21:06:22.441Z,12.66
2022-10-13T21:08:49.152Z,12.62
2022-10-13T21:11:17.717Z,12.58
2022-10-13T21:13:45.169Z,12.66
2022-10-13T21:16:18.076Z,12.62
2022-10-13T21:18:49.507Z,12.59
2022-10-13T21:21:21.525Z,12.57
2022-10-13T21:23:53.014Z,12.54
2022-10-13T21:26:22.133Z,12.57
2022-10-13T21:28:49.967Z,12.54
2022-10-13T21:31:18.593Z,12.52
2022-10-13T21:33:45.589Z,12.52
2022-10-13T21:36:18.078Z,12.57
2022-10-13T21:38:45.886Z,12.58
2022-10-13T21:41:14.331Z,12.57
2022-10-13T21:43:41.471Z,12.62
2022-10-13T21:46:18.308Z,12.62
2022-10-13T21:48:46.400Z,12.58
2022-10-13T21:51:19.981Z,12.70
2022-10-13T21:53:51.812Z,12.72
2022-10-13T21:56:19.209Z,12.67
2022-10-13T21:58:46.415Z,12.69
2022-10-13T22:01:13.224Z,12.61
2022-10-13T22:03:41.660Z,12.66
2022-10-13T22:06:18.538Z,12.64
2022-10-13T22:08:47.605Z,12.50
2022-10-13T22:11:14.842Z,12.56
2022-10-13T22:13:41.969Z,12.51
2022-10-13T22:16:12.700Z,12.50
2022-10-13T22:18:39.556Z,12.45
2022-10-13T22:21:08.881Z,12.53
2022-10-13T22:23:35.637Z,12.51
2022-10-13T22:26:02.427Z,12.52
2022-10-13T22:28:32.324Z,12.53
2022-10-13T22:31:06.633Z,12.52
2022-10-13T22:33:35.193Z,12.50
2022-10-13T22:36:07.444Z,12.48
2022-10-13T22:38:33.975Z,12.47
2022-10-13T22:41:07.753Z,12.35
2022-10-13T22:43:35.754Z,12.39
2022-10-13T22:46:03.034Z,12.34
2022-10-13T22:48:29.725Z,12.40
2022-10-13T22:50:56.797Z,12.43
2022-10-13T22:53:23.794Z,12.44
2022-10-13T22:55:50.485Z,12.41
2022-10-13T22:58:17.804Z,12.44
2022-10-13T23:00:44.485Z,12.41
2022-10-13T23:03:14.062Z,12.44
2022-10-13T23:05:42.614Z,12.42
2022-10-13T23:08:11.192Z,12.39
2022-10-13T23:10:37.864Z,12.44
2022-10-13T23:13:05.600Z,12.47
2022-10-13T23:15:32.308Z,12.47
2022-10-13T23:17:59.012Z,12.45
2022-10-13T23:20:25.610Z,12.47
2022-10-13T23:22:52.183Z,12.46
2022-10-13T23:25:18.748Z,12.48
2022-10-13T23:27:45.595Z,12.53
2022-10-13T23:30:12.845Z,12.47
2022-10-13T23:32:39.588Z,12.49
2022-10-13T23:35:06.732Z,12.60
2022-10-13T23:37:33.405Z,12.50
2022-10-13T23:39:59.950Z,12.61
2022-10-13T23:42:26.560Z,12.45
2022-10-13T23:44:53.211Z,12.58
2022-10-13T23:47:20.408Z,12.59
2022-10-13T23:49:47.150Z,12.54
2022-10-13T23:52:13.739Z,12.49
2022-10-13T23:54:40.537Z,12.58
2022-10-13T23:57:07.603Z,12.70
2022-10-13T23:59:34.300Z,12.63
